Time;durP1;ratioP1;P1;durP2;ratioP2;P2;SDS_P1;SDS_P2;PMS_P1;PMS_P2;Temp;Humidity;BMP_temperature;BMP_pressure;BME280_temperature;BME280_humidity;BME280_pressure;Samples;Min_cycle;Max_cycle;Signal;HPM_P1;HPM_P2
2022/01/03 00:03:21;;;;;;;15.60;2.33;;;;;;;9.19;82.31;100982.72;10486681;28;20049;-84
2022/01/03 00:08:24;;;;;;;13.10;2.10;;;;;;;9.20;81.84;100978.44;10472629;28;20479;-84
2022/01/03 00:13:26;;;;;;;18.70;2.85;;;;;;;9.35;80.82;100985.75;10471145;28;20144;-85
2022/01/03 00:18:28;;;;;;;14.90;3.03;;;;;;;9.24;81.49;100989.69;10463382;28;20423;-87
2022/01/03 00:23:36;;;;;;;10.88;1.98;;;;;;;9.24;81.12;100995.69;10488323;28;20091;-83
2022/01/03 00:28:50;;;;;;;19.63;2.50;;;;;;;9.11;81.65;100989.28;10487375;28;20127;-84
2022/01/03 00:33:57;;;;;;;18.52;2.55;;;;;;;8.92;82.61;101002.34;10464770;28;20053;-83
2022/01/03 00:38:59;;;;;;;24.80;3.20;;;;;;;9.07;82.60;101007.13;10462641;28;20033;-84
2022/01/03 00:44:02;;;;;;;19.17;2.30;;;;;;;8.98;82.39;101002.53;10468737;28;20045;-84
2022/01/03 00:49:05;;;;;;;16.88;2.80;;;;;;;9.08;82.19;101014.88;10482937;28;20052;-83
2022/01/03 00:54:07;;;;;;;15.68;3.05;;;;;;;9.15;82.22;101003.97;10491371;28;20091;-83
2022/01/03 00:59:20;;;;;;;15.52;2.10;;;;;;;9.17;81.91;100999.78;10493912;28;20041;-83
2022/01/03 01:04:24;;;;;;;24.35;2.45;;;;;;;9.17;82.27;101014.31;10500573;28;20064;-83
2022/01/03 01:09:30;;;;;;;13.05;2.72;;;;;;;9.16;82.60;101017.69;10485987;28;20041;-84
2022/01/03 01:14:37;;;;;;;20.95;2.70;;;;;;;9.19;82.26;101023.84;10472787;28;20052;-83
2022/01/03 01:19:40;;;;;;;19.83;2.60;;;;;;;9.26;81.69;101014.63;10466303;28;20514;-83
2022/01/03 01:24:50;;;;;;;16.13;2.17;;;;;;;9.17;82.06;101020.34;10497018;28;20407;-84
2022/01/03 01:29:52;;;;;;;14.30;2.93;;;;;;;9.28;81.45;101017.25;10480606;28;20483;-84
2022/01/03 01:34:56;;;;;;;22.90;2.70;;;;;;;9.26;81.17;101013.75;10473479;28;20048;-82
2022/01/03 01:40:01;;;;;;;27.38;3.63;;;;;;;9.24;81.21;101025.69;10464301;28;20053;-82
2022/01/03 01:45:08;;;;;;;28.27;4.55;;;;;;;9.19;81.44;101023.84;10454858;28;20514;-83
2022/01/03 01:50:11;;;;;;;21.98;3.33;;;;;;;9.19;81.27;101029.00;10466389;28;20052;-83
2022/01/03 01:55:14;;;;;;;20.27;3.17;;;;;;;9.26;81.13;101029.19;10469390;28;20048;-82
2022/01/03 02:00:22;;;;;;;29.60;3.33;;;;;;;9.28;80.79;101018.13;10485839;28;20072;-82
2022/01/03 02:05:56;;;;;;;24.88;3.28;;;;;;;9.28;80.69;101038.69;10502326;28;20056;-84
2022/01/03 02:11:18;;;;;;;22.58;3.08;;;;;;;9.26;80.30;101035.19;10498181;28;20044;-84
2022/01/03 02:16:20;;;;;;;18.48;3.58;;;;;;;9.22;80.52;101038.50;10464772;28;20045;-86
2022/01/03 02:21:26;;;;;;;21.75;3.35;;;;;;;9.12;81.05;101042.44;10483025;28;20044;-84
2022/01/03 02:26:32;;;;;;;23.50;3.25;;;;;;;9.11;80.23;101043.28;10485857;28;20494;-85
2022/01/03 02:31:35;;;;;;;22.27;3.80;;;;;;;9.11;80.51;101044.94;10486896;28;20044;-85
2022/01/03 02:36:43;;;;;;;18.33;2.78;;;;;;;9.12;80.57;101042.44;10464858;28;20052;-85
2022/01/03 02:41:45;;;;;;;20.40;2.83;;;;;;;9.14;80.46;101048.50;10481938;28;20048;-84
2022/01/03 02:46:49;;;;;;;22.85;2.65;;;;;;;9.24;79.78;101047.09;10451359;28;20044;-85
2022/01/03 02:51:51;;;;;;;16.15;3.85;;;;;;;9.31;79.12;101050.78;10503076;28;20036;-84
2022/01/03 02:56:54;;;;;;;18.80;3.15;;;;;;;9.21;80.46;101053.03;10478599;28;20055;-85
2022/01/03 03:01:59;;;;;;;25.15;3.33;;;;;;;9.24;80.42;101061.69;10475765;28;20041;-84
2022/01/03 03:07:17;;;;;;;19.73;2.60;;;;;;;9.25;80.48;101048.00;10473446;28;20063;-86
2022/01/03 03:12:19;;;;;;;20.77;3.42;;;;;;;9.24;80.03;101048.81;10494018;28;20032;-84
2022/01/03 03:17:21;;;;;;;10.95;2.38;;;;;;;9.23;80.35;101054.78;10500896;28;20063;-85
2022/01/03 03:22:26;;;;;;;24.63;2.90;;;;;;;9.16;80.43;101070.00;10483569;28;20131;-86
2022/01/03 03:27:29;;;;;;;27.17;3.78;;;;;;;9.16;80.17;101062.28;10501356;28;20041;-84
2022/01/03 03:32:53;;;;;;;34.28;3.40;;;;;;;9.19;80.62;101059.84;10484105;28;20052;-85
2022/01/03 03:37:57;;;;;;;24.25;4.05;;;;;;;9.20;80.31;101053.84;10479835;28;20049;-85
2022/01/03 03:43:02;;;;;;;25.45;4.57;;;;;;;9.19;80.21;101062.41;10468579;28;20105;-88
2022/01/03 03:48:05;;;;;;;17.85;2.63;;;;;;;9.21;79.83;101058.16;10469507;28;20037;-85
2022/01/03 03:53:08;;;;;;;24.83;4.20;;;;;;;9.23;80.01;101047.06;10506503;28;20040;-83
2022/01/03 03:58:13;;;;;;;24.27;3.55;;;;;;;9.16;80.14;101058.81;10477357;28;20596;-83
2022/01/03 04:03:18;;;;;;;23.58;3.50;;;;;;;9.29;79.10;101048.16;10501119;28;20040;-85
2022/01/03 04:08:22;;;;;;;25.05;4.15;;;;;;;9.28;79.65;101058.38;10485263;28;20438;-84
2022/01/03 04:13:25;;;;;;;16.23;3.08;;;;;;;9.30;79.32;101061.88;10459682;28;20044;-85
2022/01/03 04:18:27;;;;;;;19.50;2.88;;;;;;;9.29;79.09;101061.00;10448650;28;20049;-84
2022/01/03 04:23:29;;;;;;;34.20;3.65;;;;;;;9.28;78.78;101069.56;10482034;28;20300;-83
2022/01/03 04:28:31;;;;;;;30.77;3.42;;;;;;;9.29;78.74;101067.84;10464055;28;20055;-84
2022/01/03 04:33:33;;;;;;;27.35;4.40;;;;;;;9.33;77.94;101056.84;10496069;28;20041;-84
2022/01/03 04:38:37;;;;;;;26.98;3.50;;;;;;;9.17;79.04;101051.19;10461554;28;20448;-85
2022/01/03 04:43:41;;;;;;;22.30;3.75;;;;;;;9.11;79.07;101051.00;10462811;28;20040;-84
2022/01/03 04:48:43;;;;;;;20.38;3.47;;;;;;;8.99;79.86;101042.84;10470994;28;20079;-82
2022/01/03 04:53:45;;;;;;;22.55;3.97;;;;;;;9.00;79.32;101045.47;10482613;28;20106;-84
2022/01/03 04:58:47;;;;;;;23.65;3.88;;;;;;;9.15;78.92;101047.69;10463832;28;20041;-85
2022/01/03 05:03:49;;;;;;;21.33;3.15;;;;;;;9.11;79.46;101045.84;10492815;28;20064;-84
2022/01/03 05:08:54;;;;;;;31.75;4.35;;;;;;;9.17;78.92;101033.19;10471483;28;20123;-87
2022/01/03 05:13:56;;;;;;;19.63;3.80;;;;;;;9.19;78.68;101046.97;10470712;28;20656;-84
2022/01/03 05:18:58;;;;;;;23.38;3.50;;;;;;;9.29;78.35;101039.56;10470619;28;20055;-84
2022/01/03 05:24:01;;;;;;;28.00;4.80;;;;;;;9.19;79.29;101039.28;10497512;28;20565;-84
2022/01/03 05:29:03;;;;;;;24.90;4.32;;;;;;;9.26;78.86;101040.34;10465229;28;20438;-83
2022/01/03 05:34:05;;;;;;;24.52;4.18;;;;;;;9.26;78.27;101035.19;10462035;28;20083;-84
2022/01/03 05:39:07;;;;;;;19.98;4.28;;;;;;;9.23;78.27;101029.06;10460232;28;20052;-86
2022/01/03 05:44:09;;;;;;;29.45;4.40;;;;;;;9.16;78.84;101018.59;10486092;28;20127;-84
2022/01/03 05:49:13;;;;;;;25.88;4.30;;;;;;;9.18;78.94;101019.53;10485639;28;20590;-84
2022/01/03 05:54:15;;;;;;;21.65;3.97;;;;;;;9.25;77.81;101027.44;10465812;28;20076;-85
2022/01/03 05:59:16;;;;;;;20.23;3.42;;;;;;;9.19;78.85;101025.53;10469104;28;20045;-84
2022/01/03 06:04:24;;;;;;;22.60;4.35;;;;;;;9.23;78.59;101026.50;10467057;28;20036;-83
2022/01/03 06:09:26;;;;;;;32.60;4.65;;;;;;;9.26;78.59;101019.75;10498807;28;20116;-83
2022/01/03 06:14:33;;;;;;;33.35;4.68;;;;;;;9.16;79.11;101025.41;10447685;28;20052;-82
2022/01/03 06:19:36;;;;;;;26.98;4.28;;;;;;;9.14;79.55;101024.50;10464111;28;20618;-83
2022/01/03 06:24:39;;;;;;;28.38;5.13;;;;;;;9.28;78.66;101006.94;10476530;28;20383;-84
2022/01/03 06:29:41;;;;;;;22.13;4.80;;;;;;;9.17;79.29;101009.16;10479356;28;20048;-85
2022/01/03 06:34:43;;;;;;;22.70;4.68;;;;;;;9.17;79.22;101009.16;10475458;28;20064;-85
2022/01/03 06:39:45;;;;;;;17.92;3.47;;;;;;;9.16;79.57;101003.16;10454552;28;20045;-85
2022/01/03 06:44:48;;;;;;;25.00;3.53;;;;;;;9.17;79.27;100993.75;10454381;28;20047;-83
2022/01/03 06:49:52;;;;;;;22.00;4.13;;;;;;;9.15;79.45;101000.56;10467218;28;20511;-84
2022/01/03 06:54:54;;;;;;;23.10;3.85;;;;;;;9.19;79.06;100994.69;10476045;28;20048;-85
2022/01/03 06:59:57;;;;;;;28.65;4.25;;;;;;;9.14;79.68;100994.53;10470762;28;20048;-82
2022/01/03 07:04:59;;;;;;;24.60;4.53;;;;;;;9.18;79.45;100991.25;10474104;28;20526;-87
2022/01/03 07:10:01;;;;;;;25.33;4.68;;;;;;;9.16;79.40;100995.47;10469167;28;20036;-85
2022/01/03 07:20:26;;;;;;;25.00;4.60;;;;;;;9.10;79.97;100981.50;10464916;28;20256;-86
2022/01/03 07:25:28;;;;;;;22.17;4.32;;;;;;;9.17;78.77;100988.59;10475619;28;20055;-86
2022/01/03 07:30:30;;;;;;;20.95;3.45;;;;;;;9.10;80.18;100991.78;10472314;28;20040;-84
2022/01/03 07:35:32;;;;;;;22.90;3.75;;;;;;;9.10;79.93;100990.13;10463159;28;20067;-85
2022/01/03 07:40:34;;;;;;;20.15;4.82;;;;;;;9.14;79.51;100981.66;10481370;28;20036;-84
2022/01/03 07:45:36;;;;;;;20.60;3.30;;;;;;;9.16;79.37;100987.75;10465274;28;20040;-84
2022/01/03 07:50:38;;;;;;;20.23;4.60;;;;;;;9.13;79.40;100976.50;10462401;28;20100;-85
2022/01/03 07:55:40;;;;;;;18.58;3.38;;;;;;;9.19;78.65;100964.72;10484390;28;20036;-83
2022/01/03 08:00:41;;;;;;;18.38;3.80;;;;;;;9.24;78.53;100979.41;10456062;28;20258;-83
2022/01/03 08:05:43;;;;;;;21.38;3.83;;;;;;;9.32;78.31;100988.25;10462201;28;20102;-82
2022/01/03 08:10:49;;;;;;;20.23;3.80;;;;;;;9.23;78.97;100985.38;10446421;28;20049;-83
2022/01/03 08:15:51;;;;;;;16.83;3.10;;;;;;;9.19;79.57;100997.25;10463910;28;20049;-83
2022/01/03 08:20:53;;;;;;;26.83;4.05;;;;;;;9.26;78.72;100993.19;10504687;28;20040;-83
2022/01/03 08:25:55;;;;;;;24.70;3.95;;;;;;;9.19;79.47;100995.56;10494555;28;20053;-84
2022/01/03 08:30:56;;;;;;;23.70;3.63;;;;;;;9.30;78.90;100995.91;10460114;28;20051;-84
2022/01/03 08:35:58;;;;;;;10.80;2.75;;;;;;;9.35;78.39;101003.75;10449920;28;20499;-86
2022/01/03 08:41:00;;;;;;;20.85;3.38;;;;;;;9.30;79.16;100992.47;10462973;28;20044;-84
2022/01/03 08:46:06;;;;;;;21.05;4.32;;;;;;;9.24;79.79;100990.56;10468418;28;20040;-84
2022/01/03 08:51:08;;;;;;;20.40;4.47;;;;;;;9.31;79.44;100987.34;10457020;28;20450;-84
2022/01/03 08:56:10;;;;;;;16.27;2.75;;;;;;;9.30;79.87;100980.50;10463727;28;20045;-87
2022/01/03 09:01:12;;;;;;;19.13;3.63;;;;;;;9.24;80.21;100984.56;10450415;28;20037;-84
2022/01/03 09:06:13;;;;;;;16.73;3.25;;;;;;;9.28;79.93;100981.25;10482142;28;20094;-84
2022/01/03 09:11:15;;;;;;;17.13;3.55;;;;;;;9.25;80.07;100979.44;10471847;28;20044;-85
2022/01/03 09:16:19;;;;;;;17.63;2.70;;;;;;;9.20;80.80;100970.72;10455159;28;20052;-85
2022/01/03 09:21:21;;;;;;;16.60;3.42;;;;;;;9.16;81.08;100977.47;10485553;28;20033;-83
2022/01/03 09:31:44;;;;;;;19.58;3.20;;;;;;;9.10;80.82;100982.41;10476832;28;20073;-84
2022/01/03 09:36:45;;;;;;;17.58;2.88;;;;;;;9.21;80.86;100990.47;10453726;28;20045;-85
2022/01/03 09:42:02;;;;;;;13.55;3.10;;;;;;;9.28;80.93;100981.25;10452968;28;20044;-82
2022/01/03 09:47:05;;;;;;;17.30;3.30;;;;;;;9.29;81.07;100972.72;10474206;28;20063;-85
2022/01/03 09:52:09;;;;;;;17.50;3.58;;;;;;;9.50;79.83;100973.38;10457332;28;20045;-84
2022/01/03 09:57:13;;;;;;;20.15;3.53;;;;;;;9.43;79.77;100963.72;10470740;28;20076;-83
2022/01/03 10:02:16;;;;;;;21.85;3.72;;;;;;;9.41;79.68;100970.56;10452400;28;20037;-84
2022/01/03 10:07:19;;;;;;;17.08;3.92;;;;;;;9.40;79.33;100961.09;10458497;28;20135;-81
2022/01/03 10:12:21;;;;;;;23.52;4.47;;;;;;;9.33;79.47;100961.72;10450206;28;20036;-82
2022/01/03 10:17:23;;;;;;;20.52;3.78;;;;;;;9.37;79.62;100955.84;10477720;28;20415;-83
2022/01/03 10:22:27;;;;;;;20.33;3.58;;;;;;;9.30;79.79;100954.78;10463162;28;20041;-83
2022/01/03 10:27:48;;;;;;;19.60;3.85;;;;;;;9.41;79.35;100954.22;10476496;28;20033;-83
2022/01/03 10:32:52;;;;;;;;;;;;;;;9.48;79.42;100954.50;10467057;28;20044;-83
2022/01/03 10:37:54;;;;;;;14.73;3.55;;;;;;;9.67;79.34;100955.03;10475487;28;19920;-81
2022/01/03 10:43:19;;;;;;;16.08;3.53;;;;;;;9.83;78.26;100944.38;10469678;28;20040;-82
2022/01/03 10:48:37;;;;;;;18.25;4.00;;;;;;;9.81;78.80;100942.59;10460425;28;20044;-84
2022/01/03 10:53:41;;;;;;;25.40;4.43;;;;;;;10.09;78.25;100933.94;10465132;28;20052;-83
2022/01/03 10:58:43;;;;;;;24.13;3.95;;;;;;;9.74;78.93;100940.69;10470447;28;20051;-82
2022/01/03 11:03:46;;;;;;;17.38;3.50;;;;;;;10.07;78.49;100940.78;10458708;28;20048;-83
2022/01/03 11:14:28;;;;;;;17.00;3.92;;;;;;;9.95;77.71;100928.44;10465003;28;20060;-83
2022/01/03 11:19:42;;;;;;;14.88;3.15;;;;;;;9.78;78.24;100927.94;10426116;28;126822;-83
2022/01/03 11:24:50;;;;;;;22.65;4.47;;;;;;;9.80;78.68;100923.69;10453124;28;20041;-83
2022/01/03 11:29:52;;;;;;;18.02;3.45;;;;;;;9.84;78.44;100902.38;10428618;28;20115;-82
2022/01/03 11:34:56;;;;;;;24.00;4.43;;;;;;;9.72;78.00;100901.16;10448311;28;20060;-82
2022/01/03 11:40:04;;;;;;;19.33;4.05;;;;;;;9.94;77.92;100892.38;10429463;28;20053;-82
2022/01/03 11:45:06;;;;;;;28.38;4.00;;;;;;;9.94;76.98;100892.38;10428842;28;20452;-82
2022/01/03 11:50:09;;;;;;;17.92;3.50;;;;;;;10.16;76.79;100878.38;10418569;28;20083;-83
2022/01/03 11:55:13;;;;;;;20.27;3.80;;;;;;;10.46;75.26;100867.19;10424526;28;20045;-83
2022/01/03 12:05:41;;;;;;;16.17;3.38;;;;;;;10.66;76.30;100849.66;10432263;28;20044;-83
2022/01/03 12:10:44;;;;;;;17.50;3.10;;;;;;;10.40;76.53;100852.44;10401542;28;20056;-82
2022/01/03 12:16:01;;;;;;;20.02;4.03;;;;;;;10.02;76.93;100844.53;10407877;28;20140;-83
2022/01/03 12:21:05;;;;;;;28.88;4.38;;;;;;;10.08;76.46;100843.81;10404157;28;20044;-82
2022/01/03 12:26:19;;;;;;;17.20;4.05;;;;;;;10.21;75.96;100835.59;10429759;28;20592;-81
2022/01/03 12:31:20;;;;;;;21.27;4.68;;;;;;;10.39;75.18;100824.94;10444423;28;20037;-82
2022/01/03 12:36:23;;;;;;;19.92;3.90;;;;;;;10.12;76.25;100817.34;10456443;28;20140;-83
2022/01/03 12:41:42;;;;;;;15.00;3.53;;;;;;;10.01;81.32;100817.06;10445711;28;20075;-84
2022/01/03 12:46:44;;;;;;;24.60;3.95;;;;;;;9.99;81.18;100814.44;10459824;28;20473;-82
2022/01/03 12:51:46;;;;;;;23.95;4.60;;;;;;;10.27;79.61;100804.00;10470460;28;20585;-85
2022/01/03 12:56:49;;;;;;;23.83;3.92;;;;;;;9.94;78.29;100794.56;10452473;28;20055;-82
2022/01/03 13:01:51;;;;;;;21.20;3.70;;;;;;;10.47;77.06;100777.06;10465213;28;20052;-82
2022/01/03 13:07:00;;;;;;;25.00;4.18;;;;;;;10.18;78.01;100768.59;10457377;28;20083;-83
2022/01/03 13:12:05;;;;;;;15.57;3.00;;;;;;;10.27;77.98;100762.78;10443399;28;20041;-83
2022/01/03 13:17:09;;;;;;;19.75;3.85;;;;;;;10.06;76.29;100753.69;10476924;28;20241;-83
2022/01/03 13:22:14;;;;;;;16.52;3.20;;;;;;;9.87;77.88;100749.78;10442950;28;20063;-82
2022/01/03 13:27:22;;;;;;;20.90;4.15;;;;;;;9.80;77.92;100732.44;10469500;28;20411;-82
2022/01/03 13:32:26;;;;;;;14.60;3.28;;;;;;;9.69;78.23;100742.44;10415288;28;20480;-83
2022/01/03 13:37:28;;;;;;;14.57;3.55;;;;;;;9.59;78.09;100730.16;10467897;28;20057;-82
2022/01/03 13:53:02;;;;;;;21.25;3.58;;;;;;;9.45;77.30;100728.09;10449804;28;20049;-83
2022/01/03 13:58:13;;;;;;;18.27;3.13;;;;;;;9.40;78.65;100727.09;10456052;28;20049;-83
2022/01/03 14:03:27;;;;;;;18.23;3.33;;;;;;;9.33;79.12;100727.75;10434393;28;20037;-83
2022/01/03 14:08:38;;;;;;;14.68;3.67;;;;;;;9.35;78.26;100715.78;10463915;28;20086;-81
2022/01/03 14:13:41;;;;;;;16.83;3.50;;;;;;;9.33;77.96;100720.03;10455653;28;20099;-81
2022/01/03 14:18:50;;;;;;;16.85;3.83;;;;;;;9.27;78.32;100697.59;10468431;28;20124;-83
2022/01/03 14:23:54;;;;;;;16.30;3.67;;;;;;;9.21;78.58;100706.00;10445277;28;20060;-84
2022/01/03 14:29:07;;;;;;;17.15;3.38;;;;;;;9.05;78.86;100703.81;10435456;28;20048;-84
2022/01/03 14:34:09;;;;;;;15.02;3.28;;;;;;;9.10;78.59;100694.56;10429996;28;20050;-82
2022/01/03 14:39:10;;;;;;;15.35;3.28;;;;;;;9.13;78.45;100693.75;10428845;28;20040;-81
2022/01/03 14:44:12;;;;;;;18.00;2.97;;;;;;;9.13;78.46;100694.63;10445611;28;20036;-83
2022/01/03 14:49:19;;;;;;;17.25;3.50;;;;;;;9.17;78.03;100695.56;10432614;28;20122;-83
2022/01/03 14:54:23;;;;;;;9.40;2.30;;;;;;;9.05;78.88;100685.81;10430151;28;20049;-85
2022/01/03 14:59:30;;;;;;;12.77;2.58;;;;;;;9.03;78.61;100674.66;10450174;28;20049;-84
2022/01/03 15:04:33;;;;;;;10.60;3.00;;;;;;;9.03;78.64;100672.06;10431555;28;20060;-84
2022/01/03 15:09:57;;;;;;;11.00;2.83;;;;;;;9.02;78.95;100675.47;10449732;28;20488;-85
2022/01/03 15:15:19;;;;;;;12.98;3.05;;;;;;;9.00;79.49;100674.53;10444246;28;20049;-84
2022/01/03 15:20:22;;;;;;;8.52;2.72;;;;;;;9.00;79.27;100680.56;10451079;28;20036;-84
2022/01/03 15:25:25;;;;;;;6.13;2.47;;;;;;;9.02;79.52;100670.34;10412155;28;20051;-83
2022/01/03 15:30:37;;;;;;;11.48;2.58;;;;;;;8.95;79.23;100658.13;10443392;28;20043;-83
2022/01/03 15:35:49;;;;;;;9.05;2.25;;;;;;;8.81;79.97;100658.63;10447636;28;20040;-84
2022/01/03 15:40:52;;;;;;;10.48;2.30;;;;;;;8.77;80.22;100664.47;10415669;28;20048;-84
2022/01/03 15:46:01;;;;;;;13.65;2.83;;;;;;;8.77;79.84;100643.91;10446188;28;20075;-85
2022/01/03 15:51:03;;;;;;;8.80;2.40;;;;;;;8.67;80.15;100653.06;10428645;28;20041;-84
2022/01/03 15:56:06;;;;;;;8.98;2.00;;;;;;;8.50;80.89;100649.09;10421805;28;20059;-82
2022/01/03 16:01:08;;;;;;;10.63;2.38;;;;;;;8.55;80.48;100638.16;10446044;28;20045;-83
2022/01/03 16:06:11;;;;;;;9.13;2.47;;;;;;;8.49;81.12;100643.13;10431492;28;20037;-84
2022/01/03 16:11:15;;;;;;;13.15;2.50;;;;;;;8.48;80.62;100631.09;10434038;28;20048;-82
2022/01/03 16:16:30;;;;;;;11.23;2.30;;;;;;;8.41;81.63;100622.28;10431613;28;20053;-84
2022/01/03 16:21:32;;;;;;;10.32;2.60;;;;;;;8.39;81.47;100621.41;10446882;28;20091;-84
2022/01/03 16:26:35;;;;;;;9.93;2.47;;;;;;;8.42;81.70;100610.34;10431459;28;20075;-84
2022/01/03 16:31:36;;;;;;;9.60;2.88;;;;;;;8.51;81.17;100615.78;10449538;28;20049;-83
2022/01/03 16:36:38;;;;;;;15.02;2.65;;;;;;;8.45;81.17;100602.72;10432736;28;20136;-84
2022/01/03 16:41:42;;;;;;;8.98;2.17;;;;;;;8.47;80.74;100602.81;10414910;28;20159;-84
2022/01/03 16:46:43;;;;;;;10.90;2.40;;;;;;;8.48;81.41;100595.16;10424064;28;20048;-83
2022/01/03 16:51:45;;;;;;;7.82;2.17;;;;;;;8.36;81.62;100595.63;10440362;28;20423;-83
2022/01/03 16:56:47;;;;;;;7.60;2.60;;;;;;;8.32;81.60;100598.06;10450776;28;20052;-83
2022/01/03 17:01:49;;;;;;;12.55;2.78;;;;;;;8.30;82.06;100579.19;10451497;28;20110;-82
2022/01/03 17:06:50;;;;;;;14.13;2.60;;;;;;;8.34;81.92;100584.44;10455473;28;20041;-83
2022/01/03 17:11:53;;;;;;;11.18;2.42;;;;;;;8.35;81.26;100572.50;10454606;28;20346;-82
2022/01/03 17:16:58;;;;;;;8.43;2.15;;;;;;;8.36;81.53;100569.09;10434978;28;20096;-82
2022/01/03 17:22:00;;;;;;;6.50;2.10;;;;;;;8.27;81.68;100564.53;10455574;28;20420;-83
2022/01/03 17:27:04;;;;;;;8.23;2.20;;;;;;;8.22;82.14;100561.88;10442121;28;20056;-83
2022/01/03 17:32:10;;;;;;;7.50;2.08;;;;;;;8.28;81.72;100544.91;10430030;28;20041;-84
2022/01/03 17:37:12;;;;;;;5.13;1.77;;;;;;;8.05;82.42;100543.38;10436305;28;20052;-84
2022/01/03 17:42:14;;;;;;;9.57;2.38;;;;;;;8.01;82.85;100530.41;10429089;28;20041;-85
2022/01/03 17:47:20;;;;;;;5.57;1.85;;;;;;;8.00;82.93;100528.69;10452186;28;20470;-82
2022/01/03 17:52:30;;;;;;;8.77;2.57;;;;;;;8.00;83.29;100518.44;10453158;28;20044;-85
2022/01/03 17:57:32;;;;;;;7.55;2.85;;;;;;;7.91;83.91;100519.88;10429969;28;20314;-85
2022/01/03 18:02:39;;;;;;;8.70;3.05;;;;;;;7.83;83.86;100508.50;10433467;28;20407;-84
2022/01/03 18:07:41;;;;;;;9.70;2.65;;;;;;;7.83;84.01;100521.34;10421486;28;20055;-83
2022/01/03 18:12:49;;;;;;;10.52;3.47;;;;;;;7.79;84.23;100516.91;10417414;28;20041;-85
2022/01/03 18:17:51;;;;;;;10.38;3.30;;;;;;;7.73;84.89;100504.81;10435922;28;20049;-85
2022/01/03 18:22:56;;;;;;;8.52;3.90;;;;;;;7.68;84.80;100500.34;10427395;28;20420;-84
2022/01/03 18:27:58;;;;;;;13.88;4.55;;;;;;;7.66;84.63;100507.09;10430312;28;20488;-84
2022/01/03 18:33:01;;;;;;;14.35;4.60;;;;;;;7.61;85.31;100495.03;10430533;28;20412;-85
2022/01/03 18:38:02;;;;;;;8.82;3.67;;;;;;;7.59;85.10;100506.91;10430442;28;20040;-84
2022/01/03 18:43:05;;;;;;;9.85;4.28;;;;;;;7.55;85.08;100489.72;10431836;28;20044;-84
2022/01/03 18:48:07;;;;;;;14.00;4.72;;;;;;;7.55;84.97;100478.56;10447472;28;20049;-85
2022/01/03 18:53:11;;;;;;;11.00;4.35;;;;;;;7.65;85.07;100479.72;10425761;28;20045;-83
2022/01/03 18:58:16;;;;;;;12.38;5.80;;;;;;;7.62;84.67;100450.63;10415246;28;20059;-85
2022/01/03 19:03:19;;;;;;;10.07;5.20;;;;;;;7.45;85.70;100462.03;10438760;28;20464;-84
2022/01/03 19:08:22;;;;;;;10.25;4.65;;;;;;;7.33;86.16;100459.09;10442715;28;20122;-84
2022/01/03 19:13:23;;;;;;;16.63;6.88;;;;;;;7.38;86.45;100444.72;10424434;28;20061;-85
2022/01/03 19:18:25;;;;;;;15.38;6.63;;;;;;;7.43;86.01;100454.31;10448028;28;20052;-85
2022/01/03 19:23:30;;;;;;;13.15;6.32;;;;;;;7.49;86.31;100440.78;10387753;28;289749;-85
2022/01/03 19:28:33;;;;;;;14.70;7.63;;;;;;;7.47;86.49;100434.78;10285818;28;174650;-86
2022/01/03 19:38:37;;;;;;;16.42;7.68;;;;;;;7.44;86.43;100432.09;10406497;28;20056;-85
2022/01/03 19:43:38;;;;;;;15.23;8.88;;;;;;;7.47;86.14;100432.22;10381832;28;20041;-84
2022/01/03 19:48:40;;;;;;;16.38;7.68;;;;;;;7.44;86.30;100439.78;10389530;28;20066;-84
2022/01/03 19:53:44;;;;;;;17.52;7.88;;;;;;;7.47;86.89;100430.50;10388662;28;20098;-85
2022/01/03 19:58:46;;;;;;;17.85;9.35;;;;;;;7.45;87.05;100415.91;10392545;28;20061;-85
2022/01/03 20:03:48;;;;;;;15.15;9.10;;;;;;;7.43;86.54;100407.28;10382875;28;20048;-84
2022/01/03 20:08:50;;;;;;;20.80;11.02;;;;;;;7.41;87.05;100414.94;10447289;28;20041;-83
2022/01/03 20:13:54;;;;;;;17.58;9.60;;;;;;;7.35;87.28;100419.88;10394346;28;20050;-84
2022/01/03 20:18:56;;;;;;;18.23;11.27;;;;;;;7.31;87.28;100412.91;10407202;28;20041;-84
2022/01/03 20:23:58;;;;;;;17.70;8.63;;;;;;;7.27;87.63;100396.56;10420627;28;20500;-84
2022/01/03 20:29:00;;;;;;;17.90;12.02;;;;;;;7.22;87.43;100382.75;10407099;28;20406;-84
2022/01/03 20:34:02;;;;;;;19.13;9.27;;;;;;;7.23;87.72;100381.94;10413278;28;20061;-83
2022/01/03 20:39:04;;;;;;;15.90;9.18;;;;;;;7.22;88.33;100382.75;10430050;28;20405;-84
2022/01/03 20:44:06;;;;;;;18.08;11.32;;;;;;;7.21;88.48;100381.00;10413951;28;20393;-84
2022/01/03 20:49:08;;;;;;;20.55;11.90;;;;;;;7.24;88.49;100377.66;10378607;28;20049;-84
2022/01/03 20:54:10;;;;;;;17.50;10.20;;;;;;;7.09;88.71;100360.13;10399538;28;20551;-83
2022/01/03 20:59:11;;;;;;;16.52;8.60;;;;;;;7.15;88.90;100356.06;10416495;28;20391;-83
2022/01/03 21:04:13;;;;;;;17.92;9.73;;;;;;;7.08;89.36;100351.56;10409597;28;20136;-84
2022/01/03 21:09:16;;;;;;;20.15;11.05;;;;;;;7.12;89.01;100339.72;10431415;28;20050;-83
2022/01/03 21:14:17;;;;;;;20.60;9.90;;;;;;;7.14;89.17;100338.09;10402228;28;20053;-84
2022/01/03 21:19:19;;;;;;;18.85;10.73;;;;;;;7.14;89.43;100350.88;10414476;28;20403;-83
2022/01/03 21:24:20;;;;;;;16.15;9.38;;;;;;;7.15;89.58;100342.38;10387896;28;20131;-84
2022/01/03 21:29:22;;;;;;;19.40;10.90;;;;;;;7.17;89.85;100338.19;10365752;28;20523;-84
2022/01/03 21:34:25;;;;;;;19.45;10.38;;;;;;;7.17;89.90;100327.94;10379290;28;20069;-83
2022/01/03 21:39:27;;;;;;;19.88;10.65;;;;;;;7.19;89.78;100331.41;10412786;28;20045;-84
2022/01/03 21:44:30;;;;;;;17.13;10.27;;;;;;;7.22;90.03;100328.94;10415259;28;20043;-80
2022/01/03 21:49:32;;;;;;;23.63;10.10;;;;;;;7.25;89.93;100330.72;10401719;28;20051;-79
2022/01/03 21:54:34;;;;;;;20.88;10.23;;;;;;;7.22;89.68;100310.16;10434133;28;20503;-80
2022/01/03 21:59:36;;;;;;;19.88;9.95;;;;;;;7.24;89.99;100304.25;10450504;28;20103;-79
2022/01/03 22:04:38;;;;;;;19.40;9.02;;;;;;;7.24;89.64;100298.22;10434206;28;20045;-78
2022/01/03 22:09:40;;;;;;;17.42;10.45;;;;;;;7.25;89.57;100298.31;10418310;28;20045;-80
2022/01/03 22:14:41;;;;;;;17.30;9.35;;;;;;;7.19;90.29;100295.53;10418283;28;20396;-80
2022/01/03 22:19:43;;;;;;;17.35;10.18;;;;;;;7.23;90.50;100287.13;10400297;28;20115;-79
2022/01/03 22:24:46;;;;;;;23.20;9.60;;;;;;;7.28;90.45;100290.69;10432421;28;20042;-78
2022/01/03 22:29:49;;;;;;;15.02;8.57;;;;;;;7.30;90.28;100285.59;10419945;28;20531;-79
2022/01/03 22:34:51;;;;;;;20.63;10.27;;;;;;;7.33;90.61;100274.59;10449846;28;20069;-79
2022/01/03 22:39:53;;;;;;;17.58;9.75;;;;;;;7.33;90.36;100266.91;10432972;28;20123;-79
2022/01/03 22:44:56;;;;;;;20.88;10.48;;;;;;;7.25;90.31;100258.97;10449741;28;20047;-79
2022/01/03 22:49:58;;;;;;;21.65;12.13;;;;;;;7.35;91.03;100254.97;10415880;28;20515;-79
2022/01/03 22:55:02;;;;;;;14.88;9.00;;;;;;;7.37;90.42;100250.78;10414776;28;20053;-79
2022/01/03 23:00:14;;;;;;;18.00;10.35;;;;;;;7.35;91.06;100240.50;10416792;28;20064;-79
2022/01/03 23:05:15;;;;;;;19.35;12.30;;;;;;;7.50;90.65;100226.38;10398100;28;20455;-80
2022/01/03 23:10:37;;;;;;;21.63;10.60;;;;;;;7.44;90.89;100229.63;10414702;28;20057;-79
2022/01/03 23:15:39;;;;;;;15.10;9.82;;;;;;;7.39;90.64;100226.06;10456008;28;20515;-80
2022/01/03 23:20:41;;;;;;;19.13;9.35;;;;;;;7.32;91.10;100209.66;10451377;28;20069;-79
2022/01/03 23:25:43;;;;;;;18.70;10.85;;;;;;;7.32;91.05;100198.53;10430874;28;20120;-79
2022/01/03 23:30:44;;;;;;;16.42;8.82;;;;;;;7.29;90.93;100189.06;10415503;28;20038;-79
2022/01/03 23:35:46;;;;;;;22.67;9.98;;;;;;;7.31;90.94;100187.41;10381393;28;20053;-79
2022/01/03 23:40:48;;;;;;;22.70;10.43;;;;;;;7.25;91.14;100188.13;10430629;28;20049;-79
2022/01/03 23:45:49;;;;;;;18.10;11.35;;;;;;;7.33;91.47;100190.03;10415718;28;20041;-79
2022/01/03 23:50:51;;;;;;;15.88;9.95;;;;;;;7.38;90.70;100175.63;10414848;28;20045;-79
2022/01/03 23:55:53;;;;;;;21.48;11.73;;;;;;;7.37;90.86;100161.09;10382910;28;20104;-80
